Time;durP1;ratioP1;P1;durP2;ratioP2;P2;SDS_P1;SDS_P2;PMS_P1;PMS_P2;Temp;Humidity;BMP_temperature;BMP_pressure;BME280_temperature;BME280_humidity;BME280_pressure;Samples;Min_cycle;Max_cycle;Signal;HPM_P1;HPM_P2
2022/07/21 00:00:45;;;;;;;13.98;12.63;;;20.80;99.90;;;;;;5026401;28;20301;-34
2022/07/21 00:03:11;;;;;;;14.75;13.35;;;20.80;99.90;;;;;;4978468;28;20310;-37
2022/07/21 00:05:37;;;;;;;13.80;12.50;;;20.90;99.90;;;;;;4977177;28;20233;-36
2022/07/21 00:08:03;;;;;;;13.20;12.00;;;20.90;99.90;;;;;;5026514;28;20218;-34
2022/07/21 00:10:29;;;;;;;12.82;11.50;;;21.00;99.90;;;;;;4979470;28;20203;-34
2022/07/21 00:12:56;;;;;;;14.02;12.57;;;21.00;99.90;;;;;;4993634;28;20198;-36
2022/07/21 00:15:25;;;;;;;12.18;10.98;;;20.90;99.90;;;;;;5011818;28;20176;-34
2022/07/21 00:17:52;;;;;;;10.98;9.98;;;20.90;99.90;;;;;;4994938;28;20282;-37
2022/07/21 00:20:18;;;;;;;11.65;10.45;;;20.70;99.90;;;;;;5011405;28;20207;-37
2022/07/21 00:22:45;;;;;;;15.00;10.38;;;20.70;99.90;;;;;;4993708;28;20183;-37
2022/07/21 00:25:14;;;;;;;10.65;9.65;;;20.70;99.90;;;;;;4977788;28;20191;-34
2022/07/21 00:27:40;;;;;;;13.07;9.68;;;20.70;99.90;;;;;;4995154;28;20183;-34
2022/07/21 00:30:09;;;;;;;10.77;9.60;;;20.80;99.90;;;;;;4993458;28;20214;-34
2022/07/21 00:32:35;;;;;;;10.90;9.13;;;20.80;99.90;;;;;;4992944;28;20191;-33
2022/07/21 00:35:01;;;;;;;10.93;9.82;;;20.80;99.90;;;;;;4975534;28;20191;-34
2022/07/21 00:37:27;;;;;;;14.23;11.23;;;20.80;99.90;;;;;;4994600;28;20241;-36
2022/07/21 00:39:54;;;;;;;14.60;11.32;;;20.70;99.90;;;;;;5013303;28;20203;-37
2022/07/21 00:42:25;;;;;;;12.18;11.02;;;20.70;99.90;;;;;;4997089;28;20179;-34
2022/07/21 00:44:51;;;;;;;10.93;9.82;;;20.80;99.90;;;;;;4996713;28;20183;-36
2022/07/21 00:47:28;;;;;;;11.07;10.07;;;20.80;99.90;;;;;;4997380;28;20186;-37
2022/07/21 00:49:55;;;;;;;10.80;9.80;;;20.80;99.90;;;;;;4997637;28;20194;-34
2022/07/21 00:52:22;;;;;;;11.18;10.05;;;20.70;99.90;;;;;;4997568;28;20190;-36
2022/07/21 00:54:48;;;;;;;11.23;10.13;;;20.80;99.90;;;;;;4980584;28;20183;-34
2022/07/21 00:57:15;;;;;;;11.02;9.93;;;20.70;99.90;;;;;;5006365;28;20195;-34
2022/07/21 00:59:43;;;;;;;10.60;9.50;;;20.80;99.90;;;;;;5016343;28;20210;-34
2022/07/21 01:02:09;;;;;;;13.63;10.63;;;20.80;99.90;;;;;;5015957;28;20202;-34
2022/07/21 01:04:36;;;;;;;10.88;9.45;;;20.80;99.90;;;;;;5016063;28;20182;-34
2022/07/21 01:07:03;;;;;;;10.75;9.68;;;20.80;99.90;;;;;;5016296;28;20170;-34
2022/07/21 01:09:30;;;;;;;11.38;9.27;;;20.80;99.90;;;;;;5016182;28;20191;-36
2022/07/21 01:11:57;;;;;;;11.25;9.82;;;20.90;99.90;;;;;;5016256;28;20203;-35
2022/07/21 01:14:23;;;;;;;11.20;9.35;;;20.80;99.90;;;;;;4997477;28;20559;-34
2022/07/21 01:16:50;;;;;;;11.50;8.82;;;20.80;99.90;;;;;;4996419;28;20659;-34
2022/07/21 01:19:16;;;;;;;10.50;8.95;;;20.80;99.90;;;;;;4996956;28;20269;-34
2022/07/21 01:21:45;;;;;;;12.15;9.23;;;20.80;99.90;;;;;;5012871;28;20203;-35
2022/07/21 01:24:11;;;;;;;11.60;9.73;;;20.70;99.90;;;;;;5012469;28;20187;-34
2022/07/21 01:26:45;;;;;;;11.82;9.05;;;20.70;99.90;;;;;;4996128;28;20233;-37
2022/07/21 01:29:12;;;;;;;12.70;8.90;;;20.70;99.90;;;;;;4995842;28;20210;-36
2022/07/21 01:31:40;;;;;;;11.60;10.10;;;20.60;99.90;;;;;;4996045;28;20199;-37
2022/07/21 01:34:07;;;;;;;11.50;9.85;;;20.50;99.90;;;;;;4979713;28;20183;-34
2022/07/21 01:36:33;;;;;;;15.75;10.27;;;20.40;99.90;;;;;;4996020;28;20210;-37
2022/07/21 01:41:44;;;;;;;13.27;9.57;;;20.30;99.90;;;;;;5011883;28;20227;-34
2022/07/21 01:44:12;;;;;;;10.90;9.77;;;20.40;99.90;;;;;;5013268;28;20225;-34
2022/07/21 01:46:42;;;;;;;10.40;9.30;;;20.40;99.90;;;;;;4979645;28;20230;-34
2022/07/21 01:49:08;;;;;;;13.35;10.07;;;20.50;99.90;;;;;;4978764;28;20191;-34
2022/07/21 01:51:34;;;;;;;13.43;9.10;;;20.50;99.90;;;;;;4995704;28;20210;-33
2022/07/21 01:53:59;;;;;;;10.93;9.93;;;20.50;99.90;;;;;;4979219;28;20187;-34
2022/07/21 01:56:27;;;;;;;10.50;9.50;;;20.50;99.90;;;;;;4979462;28;20186;-36
2022/07/21 01:58:55;;;;;;;12.60;8.85;;;20.50;99.90;;;;;;4995826;28;20182;-34
2022/07/21 02:01:23;;;;;;;9.68;8.70;;;20.50;99.90;;;;;;5013061;28;20203;-33
2022/07/21 02:03:49;;;;;;;11.15;10.00;;;20.50;99.90;;;;;;4995805;28;20183;-34
2022/07/21 02:06:15;;;;;;;10.35;9.25;;;20.60;99.90;;;;;;4996186;28;20187;-36
2022/07/21 02:08:44;;;;;;;11.90;10.70;;;20.60;99.90;;;;;;5011378;28;20187;-36
2022/07/21 02:11:11;;;;;;;13.43;9.57;;;20.70;99.90;;;;;;4995107;28;20293;-36
2022/07/21 02:13:37;;;;;;;10.63;9.55;;;20.70;99.90;;;;;;5012841;28;20183;-34
2022/07/21 02:16:03;;;;;;;11.52;9.93;;;20.70;99.90;;;;;;4979084;28;20640;-34
2022/07/21 02:18:29;;;;;;;10.07;9.18;;;20.80;99.90;;;;;;4995242;28;20176;-34
2022/07/21 02:20:56;;;;;;;13.00;10.00;;;20.80;99.90;;;;;;4995182;28;20211;-36
2022/07/21 02:23:23;;;;;;;11.35;9.10;;;20.80;99.90;;;;;;5012425;28;20194;-36
2022/07/21 02:25:50;;;;;;;9.65;8.65;;;20.70;99.90;;;;;;4995211;28;20214;-37
2022/07/21 02:28:16;;;;;;;10.40;9.20;;;20.70;99.90;;;;;;4995189;28;20270;-37
2022/07/21 02:30:42;;;;;;;9.98;9.00;;;20.70;99.90;;;;;;4978951;28;20245;-37
2022/07/21 02:33:08;;;;;;;9.80;8.85;;;20.70;99.90;;;;;;4994960;28;20187;-35
2022/07/21 02:35:34;;;;;;;10.27;9.32;;;20.70;99.90;;;;;;4994755;28;20241;-34
2022/07/21 02:38:00;;;;;;;10.68;9.02;;;20.70;99.90;;;;;;5012681;28;20234;-34
2022/07/21 02:40:26;;;;;;;10.93;9.60;;;20.80;99.90;;;;;;4994555;28;20226;-37
2022/07/21 02:42:52;;;;;;;10.27;9.27;;;20.80;99.90;;;;;;4994809;28;20190;-36
2022/07/21 02:45:18;;;;;;;10.25;9.25;;;20.80;99.90;;;;;;4994450;28;20182;-37
2022/07/21 02:48:06;;;;;;;10.65;9.65;;;20.80;99.90;;;;;;4994446;28;20183;-34
2022/07/21 02:50:35;;;;;;;11.32;9.65;;;20.80;99.90;;;;;;4994264;28;20209;-34
2022/07/21 02:53:07;;;;;;;10.93;9.80;;;20.70;99.90;;;;;;4994699;28;20187;-34
2022/07/21 02:55:33;;;;;;;10.90;9.77;;;20.60;99.90;;;;;;5010768;28;20176;-34
2022/07/21 02:58:11;;;;;;;10.40;9.50;;;20.60;99.90;;;;;;4994529;28;20624;-34
2022/07/21 03:01:07;;;;;;;10.50;9.48;;;20.60;99.90;;;;;;4978166;28;20293;-34
2022/07/21 03:03:36;;;;;;;11.23;10.02;;;20.60;99.90;;;;;;4994694;28;20175;-34
2022/07/21 03:06:03;;;;;;;10.25;9.25;;;20.50;99.90;;;;;;4978113;28;20206;-35
2022/07/21 03:08:29;;;;;;;9.73;8.82;;;20.60;99.90;;;;;;5012196;28;20214;-34
2022/07/21 03:10:55;;;;;;;10.57;9.57;;;20.50;99.90;;;;;;5011908;28;20187;-35
2022/07/21 03:13:22;;;;;;;9.95;9.05;;;20.50;99.90;;;;;;4993753;28;20195;-34
2022/07/21 03:15:50;;;;;;;10.60;9.48;;;20.50;99.90;;;;;;4993868;28;20195;-35
2022/07/21 03:18:23;;;;;;;9.88;8.98;;;20.50;99.90;;;;;;4994627;28;20183;-34
2022/07/21 03:20:52;;;;;;;10.77;9.25;;;20.40;99.90;;;;;;4994221;28;20238;-34
2022/07/21 03:23:19;;;;;;;10.05;9.15;;;20.40;99.90;;;;;;4977564;28;20186;-34
2022/07/21 03:25:45;;;;;;;10.15;8.60;;;20.40;99.90;;;;;;4976980;28;20175;-35
2022/07/21 03:28:13;;;;;;;10.13;8.98;;;20.40;99.90;;;;;;5011780;28;20190;-35
2022/07/21 03:30:39;;;;;;;11.20;9.35;;;20.40;99.90;;;;;;4993759;28;20205;-34
2022/07/21 03:33:06;;;;;;;11.40;9.82;;;20.40;99.90;;;;;;4993616;28;20223;-34
2022/07/21 03:35:35;;;;;;;10.20;9.05;;;20.40;99.90;;;;;;4993262;28;20179;-34
2022/07/21 03:38:02;;;;;;;11.50;10.25;;;20.30;99.90;;;;;;4993688;28;20783;-35
2022/07/21 03:40:31;;;;;;;9.68;8.88;;;20.30;99.90;;;;;;4977218;28;20242;-34
2022/07/21 03:43:01;;;;;;;10.75;9.65;;;20.20;99.90;;;;;;5011346;28;20179;-35
2022/07/21 03:45:30;;;;;;;10.90;9.73;;;20.20;99.90;;;;;;4993671;28;20210;-34
2022/07/21 03:47:57;;;;;;;10.43;9.43;;;20.20;99.90;;;;;;4993549;28;20249;-36
2022/07/21 03:50:23;;;;;;;9.95;9.15;;;20.20;99.90;;;;;;4993474;28;20196;-34
2022/07/21 03:52:49;;;;;;;10.00;8.85;;;20.30;99.90;;;;;;4993529;28;20233;-36
2022/07/21 03:55:17;;;;;;;10.80;9.70;;;20.30;99.90;;;;;;4993126;28;20206;-39
2022/07/21 03:57:48;;;;;;;11.05;9.95;;;20.30;99.90;;;;;;4993628;28;20175;-35
2022/07/21 04:00:23;;;;;;;10.57;9.68;;;20.30;99.90;;;;;;4993305;28;20215;-35
2022/07/21 04:02:49;;;;;;;10.68;9.57;;;20.30;99.90;;;;;;4957352;28;20202;-38
2022/07/21 04:05:16;;;;;;;10.55;9.45;;;20.20;99.90;;;;;;4973677;28;20179;-37
2022/07/21 04:07:44;;;;;;;11.52;9.43;;;20.20;99.90;;;;;;4973570;28;20283;-39
2022/07/21 04:10:14;;;;;;;10.07;9.07;;;20.20;99.90;;;;;;4957748;28;20179;-37
2022/07/21 04:12:40;;;;;;;10.98;9.88;;;20.30;99.90;;;;;;4981429;28;20183;-34
2022/07/21 04:15:08;;;;;;;11.18;9.98;;;20.20;99.90;;;;;;5013735;28;20198;-35
2022/07/21 04:17:35;;;;;;;10.90;9.80;;;20.20;99.90;;;;;;4977873;28;20662;-35
2022/07/21 04:20:04;;;;;;;11.18;9.90;;;20.20;99.90;;;;;;4979279;28;20294;-36
2022/07/21 04:22:33;;;;;;;10.35;9.35;;;20.30;99.90;;;;;;4997355;28;20186;-35
2022/07/21 04:25:01;;;;;;;11.88;10.52;;;20.30;99.90;;;;;;4996788;28;20202;-34
2022/07/21 04:27:40;;;;;;;11.30;10.10;;;20.20;99.90;;;;;;4998888;28;20205;-35
2022/07/21 04:30:11;;;;;;;13.52;9.90;;;20.20;99.90;;;;;;4996102;28;20201;-35
2022/07/21 04:32:37;;;;;;;11.75;9.48;;;20.20;99.90;;;;;;4996100;28;20180;-34
2022/07/21 04:35:04;;;;;;;10.73;9.68;;;20.30;99.90;;;;;;4995183;28;20183;-37
2022/07/21 04:37:31;;;;;;;10.73;9.73;;;20.30;99.90;;;;;;4980113;28;20191;-34
2022/07/21 04:39:56;;;;;;;14.30;9.85;;;20.20;99.90;;;;;;4979739;28;20201;-34
2022/07/21 04:42:22;;;;;;;11.32;10.23;;;20.30;99.90;;;;;;4995442;28;20195;-36
2022/07/21 04:44:48;;;;;;;10.55;9.48;;;20.30;99.90;;;;;;4979723;28;20214;-34
2022/07/21 04:47:15;;;;;;;12.35;10.98;;;20.30;99.90;;;;;;4996029;28;20180;-35
2022/07/21 04:49:41;;;;;;;11.65;10.20;;;20.30;99.90;;;;;;4996154;28;20218;-35
2022/07/21 04:52:07;;;;;;;11.38;10.27;;;20.30;99.90;;;;;;4996750;28;20195;-34
2022/07/21 04:54:33;;;;;;;12.02;10.35;;;20.30;99.90;;;;;;4996068;28;20260;-35
2022/07/21 04:57:02;;;;;;;11.05;9.88;;;20.30;99.90;;;;;;4979027;28;20211;-35
2022/07/21 04:59:29;;;;;;;12.00;10.60;;;20.30;99.90;;;;;;5012005;28;20203;-36
2022/07/21 05:01:55;;;;;;;12.02;10.55;;;20.30;99.90;;;;;;4994166;28;20202;-35
2022/07/21 05:04:21;;;;;;;11.52;10.32;;;20.30;99.90;;;;;;4996628;28;20186;-37
2022/07/21 05:06:47;;;;;;;11.15;10.05;;;20.30;99.90;;;;;;4996129;28;20258;-37
2022/07/21 05:09:13;;;;;;;12.40;11.02;;;20.30;99.90;;;;;;4996418;28;20192;-37
2022/07/21 05:11:40;;;;;;;11.68;10.07;;;20.40;99.90;;;;;;4979737;28;20282;-36
2022/07/21 05:14:06;;;;;;;11.63;10.52;;;20.40;99.90;;;;;;4979859;28;20191;-37
2022/07/21 05:16:32;;;;;;;11.27;10.27;;;20.50;99.90;;;;;;4979894;28;20179;-37
2022/07/21 05:18:58;;;;;;;12.90;11.45;;;20.50;99.90;;;;;;4980083;28;20179;-37
2022/07/21 05:21:23;;;;;;;11.90;10.70;;;20.50;99.90;;;;;;4995707;28;20219;-37
2022/07/21 05:23:49;;;;;;;13.10;11.70;;;20.50;99.90;;;;;;4978530;28;20185;-37
2022/07/21 05:26:15;;;;;;;15.52;12.27;;;20.60;99.90;;;;;;4980407;28;20171;-38
2022/07/21 05:28:41;;;;;;;12.57;11.27;;;20.70;99.90;;;;;;4995623;28;20238;-37
2022/07/21 05:31:08;;;;;;;13.50;12.07;;;20.70;99.90;;;;;;5012231;28;20222;-38
2022/07/21 05:33:34;;;;;;;13.52;12.00;;;20.70;99.90;;;;;;4979598;28;20243;-37
2022/07/21 05:36:00;;;;;;;12.30;11.18;;;20.70;99.90;;;;;;4979578;28;20183;-38
2022/07/21 05:38:26;;;;;;;13.93;12.20;;;20.90;99.90;;;;;;4978671;28;20183;-37
2022/07/21 05:40:52;;;;;;;13.18;11.88;;;21.00;99.90;;;;;;4995212;28;20215;-37
2022/07/21 05:43:18;;;;;;;15.85;12.07;;;21.10;99.90;;;;;;4995500;28;20282;-37
2022/07/21 05:45:46;;;;;;;13.20;11.85;;;21.00;99.90;;;;;;4978466;28;20182;-40
2022/07/21 05:48:55;;;;;;;13.90;12.45;;;21.10;99.90;;;;;;5068381;28;20287;-37
2022/07/21 05:51:21;;;;;;;13.23;11.85;;;21.20;99.90;;;;;;5058231;28;20244;-39
2022/07/21 05:53:50;;;;;;;12.63;11.43;;;21.30;99.90;;;;;;5046131;28;20178;-37
2022/07/21 05:56:21;;;;;;;12.65;11.52;;;21.40;99.90;;;;;;5047935;28;20174;-39
2022/07/21 05:58:50;;;;;;;13.30;12.00;;;21.40;99.90;;;;;;5048428;28;20177;-39
2022/07/21 06:01:16;;;;;;;13.27;11.98;;;21.60;99.90;;;;;;5029757;28;20197;-40
2022/07/21 06:03:51;;;;;;;12.55;11.23;;;21.60;99.90;;;;;;5029832;28;20197;-40
2022/07/21 06:06:20;;;;;;;12.30;11.07;;;21.70;99.90;;;;;;5025351;28;20242;-37
2022/07/21 06:08:47;;;;;;;12.52;10.85;;;21.70;99.90;;;;;;5009580;28;20178;-37
2022/07/21 06:11:16;;;;;;;12.73;11.43;;;21.80;99.90;;;;;;5008890;28;20213;-39
2022/07/21 06:13:43;;;;;;;14.18;12.30;;;21.90;99.90;;;;;;5023702;28;20201;-38
2022/07/21 06:16:09;;;;;;;11.48;10.23;;;22.00;99.90;;;;;;5046259;28;20185;-37
2022/07/21 06:18:36;;;;;;;10.48;9.57;;;22.00;99.90;;;;;;5046279;28;20193;-37
2022/07/21 06:21:02;;;;;;;11.32;10.23;;;22.10;99.90;;;;;;5047760;28;20190;-38
2022/07/21 06:23:28;;;;;;;10.65;9.57;;;22.10;99.90;;;;;;5046772;28;20185;-37
2022/07/21 06:25:55;;;;;;;10.23;9.15;;;22.00;99.90;;;;;;5043328;28;20174;-37
2022/07/21 06:28:21;;;;;;;10.98;9.98;;;22.10;99.90;;;;;;5029811;28;20212;-38
2022/07/21 06:30:47;;;;;;;10.20;9.27;;;22.20;99.90;;;;;;5029669;28;20212;-38
2022/07/21 06:33:13;;;;;;;11.38;10.18;;;22.30;99.90;;;;;;5029068;28;20206;-38
2022/07/21 06:35:39;;;;;;;13.23;10.10;;;22.30;99.90;;;;;;5029184;28;20264;-37
2022/07/21 06:38:05;;;;;;;11.40;10.30;;;22.40;99.90;;;;;;5028149;28;20174;-41
2022/07/21 06:40:31;;;;;;;10.30;9.40;;;22.50;99.90;;;;;;5028060;28;20202;-37
2022/07/21 06:42:57;;;;;;;10.93;9.88;;;22.70;99.90;;;;;;5028897;28;20194;-38
2022/07/21 06:45:24;;;;;;;11.63;9.65;;;22.80;99.90;;;;;;5029234;28;20178;-37
2022/07/21 06:47:50;;;;;;;10.30;9.32;;;22.70;99.90;;;;;;5029335;28;20206;-38
2022/07/21 06:50:16;;;;;;;10.13;8.98;;;22.80;99.90;;;;;;5045669;28;20670;-40
2022/07/21 06:52:42;;;;;;;9.55;8.65;;;22.90;99.90;;;;;;5029211;28;20170;-40
2022/07/21 06:55:08;;;;;;;12.23;9.02;;;23.00;99.90;;;;;;5029382;28;20174;-37
2022/07/21 06:57:35;;;;;;;8.52;7.72;;;23.10;99.90;;;;;;5028989;28;20249;-38
2022/07/21 07:00:05;;;;;;;8.52;7.63;;;23.20;99.90;;;;;;5032117;28;20261;-38
2022/07/21 07:02:31;;;;;;;8.38;7.57;;;23.20;99.90;;;;;;5015734;28;20182;-37
2022/07/21 07:04:57;;;;;;;10.15;8.43;;;23.30;99.90;;;;;;5032601;28;20186;-37
2022/07/21 07:07:23;;;;;;;11.07;8.10;;;23.50;99.90;;;;;;5016157;28;20217;-37
2022/07/21 07:09:59;;;;;;;9.05;8.15;;;23.60;99.90;;;;;;5030317;28;20715;-39
2022/07/21 07:12:26;;;;;;;8.43;7.47;;;23.60;99.90;;;;;;5012674;28;20269;-37
2022/07/21 07:14:52;;;;;;;7.47;6.88;;;23.50;99.90;;;;;;4994436;28;20223;-39
2022/07/21 07:17:18;;;;;;;7.68;6.93;;;23.50;99.90;;;;;;4995667;28;20194;-37
2022/07/21 07:19:45;;;;;;;8.73;7.30;;;23.50;99.90;;;;;;5011522;28;20183;-38
2022/07/21 07:22:11;;;;;;;7.68;6.75;;;23.50;99.90;;;;;;5012023;28;20199;-39
2022/07/21 07:24:37;;;;;;;8.38;7.57;;;23.40;99.90;;;;;;5011905;28;20225;-37
2022/07/21 07:27:03;;;;;;;8.02;7.00;;;23.40;99.90;;;;;;5012045;28;20257;-39
2022/07/21 07:29:30;;;;;;;7.65;6.95;;;23.40;99.90;;;;;;4995472;28;20254;-38
2022/07/21 07:31:56;;;;;;;8.18;7.43;;;23.50;99.90;;;;;;4995487;28;20199;-38
2022/07/21 07:34:22;;;;;;;10.00;7.18;;;23.60;99.90;;;;;;4995735;28;20180;-37
2022/07/21 07:36:48;;;;;;;7.93;7.13;;;23.70;99.90;;;;;;5012103;28;20187;-39
2022/07/21 07:39:15;;;;;;;9.15;7.20;;;23.90;99.90;;;;;;5011924;28;20190;-38
2022/07/21 07:41:41;;;;;;;9.00;7.28;;;24.00;99.90;;;;;;5011847;28;20207;-37
2022/07/21 07:44:08;;;;;;;8.02;7.10;;;24.20;99.90;;;;;;5011500;28;20186;-38
2022/07/21 07:46:34;;;;;;;9.43;7.28;;;24.30;99.90;;;;;;5015355;28;20206;-37
2022/07/21 07:49:00;;;;;;;9.50;7.95;;;24.40;99.90;;;;;;5031840;28;20174;-41
2022/07/21 07:51:26;;;;;;;7.63;6.88;;;24.50;99.90;;;;;;5032739;28;20195;-38
2022/07/21 07:53:51;;;;;;;8.13;7.32;;;24.50;99.90;;;;;;5014724;28;20240;-38
2022/07/21 07:56:17;;;;;;;7.88;7.15;;;24.50;99.90;;;;;;5031488;28;20196;-37
2022/07/21 07:58:46;;;;;;;10.57;7.05;;;24.70;99.90;;;;;;5030629;28;20181;-39
2022/07/21 08:01:16;;;;;;;8.25;7.40;;;24.90;99.90;;;;;;5000072;28;20205;-40
2022/07/21 08:03:43;;;;;;;7.32;6.72;;;25.00;99.90;;;;;;5020346;28;20221;-37
2022/07/21 08:06:10;;;;;;;9.27;7.13;;;24.90;99.90;;;;;;5025003;28;20191;-37
2022/07/21 08:08:37;;;;;;;9.23;6.97;;;25.00;99.90;;;;;;5023934;28;20172;-37
2022/07/21 08:11:03;;;;;;;8.68;7.40;;;25.10;99.90;;;;;;4999095;28;20236;-36
2022/07/21 08:13:30;;;;;;;8.55;7.75;;;25.00;99.90;;;;;;5021462;28;20180;-37
2022/07/21 08:15:56;;;;;;;8.50;7.45;;;25.10;99.90;;;;;;5011064;28;20178;-40
2022/07/21 08:18:23;;;;;;;8.98;7.03;;;25.10;99.90;;;;;;5002820;28;20175;-39
2022/07/21 08:20:51;;;;;;;7.88;7.13;;;25.10;99.90;;;;;;5004706;28;20203;-39
2022/07/21 08:23:19;;;;;;;7.45;6.75;;;25.10;99.90;;;;;;5020324;28;20210;-37
2022/07/21 08:25:44;;;;;;;9.00;7.18;;;25.20;99.90;;;;;;5011174;28;20229;-37
2022/07/21 08:28:11;;;;;;;8.52;6.97;;;25.20;99.90;;;;;;5004265;28;20209;-37
2022/07/21 08:30:37;;;;;;;7.70;6.90;;;25.10;99.90;;;;;;5024880;28;20191;-37
2022/07/21 08:33:04;;;;;;;7.97;7.00;;;25.00;99.90;;;;;;5017235;28;20203;-37
2022/07/21 08:35:34;;;;;;;8.23;7.10;;;24.90;99.90;;;;;;5020674;28;20178;-37
2022/07/21 08:38:05;;;;;;;8.10;7.32;;;24.90;99.90;;;;;;5013904;28;20202;-38
2022/07/21 08:40:35;;;;;;;7.95;7.15;;;24.90;99.90;;;;;;5010494;28;20219;-40
2022/07/21 08:43:01;;;;;;;7.50;6.90;;;24.80;99.90;;;;;;5047881;28;20178;-38
2022/07/21 08:45:27;;;;;;;7.80;7.00;;;24.80;99.90;;;;;;5015093;28;20182;-38
2022/07/21 08:47:55;;;;;;;7.22;6.40;;;24.90;99.90;;;;;;5031533;28;20233;-37
2022/07/21 08:50:27;;;;;;;7.38;6.70;;;25.20;99.90;;;;;;5013812;28;20199;-37
2022/07/21 08:52:53;;;;;;;7.18;6.53;;;25.30;99.90;;;;;;5030372;28;20186;-37
2022/07/21 08:55:19;;;;;;;7.65;7.00;;;25.50;99.90;;;;;;5030205;28;20179;-37
2022/07/21 08:57:45;;;;;;;8.55;7.30;;;25.60;99.90;;;;;;5014565;28;20269;-37
2022/07/21 09:00:12;;;;;;;7.60;6.90;;;25.50;99.90;;;;;;5032089;28;20174;-38
2022/07/21 09:02:38;;;;;;;7.63;6.53;;;25.50;99.90;;;;;;5014315;28;20186;-37
2022/07/21 09:05:07;;;;;;;7.28;6.57;;;25.40;99.90;;;;;;5030601;28;20178;-37
2022/07/21 09:07:51;;;;;;;10.18;6.40;;;25.40;99.90;;;;;;5029854;28;20206;-37
2022/07/21 09:10:22;;;;;;;7.35;6.72;;;25.60;99.90;;;;;;5031792;28;20209;-37
2022/07/21 09:12:54;;;;;;;7.20;6.50;;;25.70;99.90;;;;;;5007698;28;20192;-37
2022/07/21 09:15:22;;;;;;;6.93;6.03;;;25.70;99.90;;;;;;5010189;28;20183;-37
2022/07/21 09:18:09;;;;;;;7.25;6.53;;;25.90;99.90;;;;;;5010469;28;20176;-37
2022/07/21 09:20:36;;;;;;;7.10;6.50;;;26.10;99.90;;;;;;4993785;28;20198;-38
2022/07/21 09:23:12;;;;;;;6.50;5.75;;;26.30;99.90;;;;;;5014151;28;20187;-38
2022/07/21 09:25:41;;;;;;;8.88;6.40;;;26.60;99.90;;;;;;4992758;28;20190;-37
2022/07/21 09:28:20;;;;;;;6.13;5.63;;;26.60;99.90;;;;;;4993878;28;20211;-38
2022/07/21 09:31:02;;;;;;;6.40;5.43;;;26.70;99.90;;;;;;5011187;28;20214;-38
2022/07/21 09:33:31;;;;;;;7.30;5.97;;;26.90;99.90;;;;;;4994300;28;20229;-39
2022/07/21 09:36:01;;;;;;;6.43;5.75;;;27.00;99.90;;;;;;4993861;28;20182;-37
2022/07/21 09:38:28;;;;;;;9.75;5.35;;;27.00;99.90;;;;;;4993592;28;20190;-37
2022/07/21 09:40:56;;;;;;;5.70;5.20;;;26.90;99.90;;;;;;4993371;28;20210;-37
2022/07/21 09:43:33;;;;;;;6.18;5.57;;;26.70;99.90;;;;;;4993822;28;20292;-37
2022/07/21 09:46:02;;;;;;;6.57;5.65;;;26.80;99.90;;;;;;4993905;28;20183;-38
2022/07/21 09:48:36;;;;;;;6.57;5.93;;;26.70;99.90;;;;;;5009803;28;20324;-38
2022/07/21 09:51:34;;;;;;;6.07;5.40;;;26.80;99.90;;;;;;5010175;28;20448;-38
2022/07/21 09:54:12;;;;;;;7.28;5.70;;;26.70;99.90;;;;;;5017699;28;20224;-37
2022/07/21 09:56:42;;;;;;;6.13;5.40;;;26.80;99.90;;;;;;5021855;28;20167;-38
2022/07/21 09:59:10;;;;;;;6.70;6.10;;;27.20;99.90;;;;;;5010060;28;20215;-37
2022/07/21 10:01:40;;;;;;;6.05;5.55;;;27.40;99.90;;;;;;5023774;28;20202;-37
2022/07/21 10:04:07;;;;;;;6.35;5.75;;;27.60;99.90;;;;;;5012781;28;20178;-37
2022/07/21 10:06:36;;;;;;;6.03;5.53;;;27.80;99.90;;;;;;5029728;28;20206;-37
2022/07/21 10:09:05;;;;;;;6.25;5.45;;;27.80;99.90;;;;;;5013496;28;20201;-37
2022/07/21 10:11:31;;;;;;;6.38;5.78;;;27.80;99.90;;;;;;5013273;28;20190;-37
2022/07/21 10:13:58;;;;;;;6.10;5.50;;;27.70;99.90;;;;;;5018798;28;20190;-37
2022/07/21 10:16:28;;;;;;;6.93;5.90;;;27.70;99.90;;;;;;4993475;28;20294;-39
2022/07/21 10:19:00;;;;;;;5.75;5.35;;;27.60;99.90;;;;;;4992470;28;20199;-37
2022/07/21 10:21:46;;;;;;;6.00;5.50;;;27.40;99.90;;;;;;4992959;28;20207;-37
2022/07/21 10:24:13;;;;;;;6.32;5.50;;;27.30;99.90;;;;;;5000926;28;20191;-38
2022/07/21 10:27:05;;;;;;;6.43;5.75;;;27.10;99.90;;;;;;5017996;28;20195;-39
2022/07/21 10:29:58;;;;;;;5.93;5.43;;;27.10;99.90;;;;;;5021396;28;20183;-38
2022/07/21 10:32:48;;;;;;;6.45;5.85;;;27.20;99.90;;;;;;5012180;28;20178;-40
2022/07/21 10:35:28;;;;;;;5.88;5.35;;;27.60;99.90;;;;;;5016242;28;20184;-42
2022/07/21 10:37:55;;;;;;;5.75;5.20;;;27.80;99.90;;;;;;5030953;28;20178;-39
2022/07/21 10:40:21;;;;;;;6.10;5.50;;;28.00;99.90;;;;;;5016486;28;20198;-37
2022/07/21 10:42:59;;;;;;;6.10;5.40;;;28.20;99.90;;;;;;5010586;28;20199;-38
2022/07/21 10:45:32;;;;;;;6.65;5.03;;;28.50;99.90;;;;;;4996044;28;20195;-39
2022/07/21 10:47:59;;;;;;;5.95;5.20;;;28.50;99.90;;;;;;5012879;28;20257;-38
2022/07/21 10:50:35;;;;;;;5.43;4.93;;;28.60;99.90;;;;;;4996796;28;20203;-38
2022/07/21 10:53:19;;;;;;;5.00;4.40;;;28.90;99.90;;;;;;4996795;28;20218;-39
2022/07/21 10:55:50;;;;;;;4.55;4.13;;;28.90;99.90;;;;;;4996096;28;20175;-38
2022/07/21 10:58:38;;;;;;;4.88;4.47;;;28.90;99.90;;;;;;4996913;28;20183;-37
2022/07/21 11:01:37;;;;;;;5.20;4.38;;;28.80;99.90;;;;;;5020751;28;20191;-38
2022/07/21 11:04:12;;;;;;;6.10;4.55;;;28.80;99.90;;;;;;4974588;28;20199;-43
2022/07/21 11:06:42;;;;;;;5.82;4.75;;;28.90;99.90;;;;;;5013318;28;20210;-39
2022/07/21 11:09:17;;;;;;;5.85;5.00;;;29.00;99.90;;;;;;5007940;28;20171;-38
2022/07/21 11:11:47;;;;;;;5.28;4.78;;;29.00;99.90;;;;;;5016512;28;20194;-39
2022/07/21 11:14:39;;;;;;;4.97;4.10;;;29.20;99.90;;;;;;5010393;28;20182;-40
2022/07/21 11:17:24;;;;;;;5.55;4.35;;;29.40;99.90;;;;;;5026384;28;20179;-39
2022/07/21 11:19:52;;;;;;;5.15;4.20;;;29.20;99.90;;;;;;5010088;28;20265;-38
2022/07/21 11:22:28;;;;;;;6.28;4.28;;;29.30;99.90;;;;;;5014214;28;20727;-41
2022/07/21 11:25:04;;;;;;;4.82;4.25;;;29.30;99.90;;;;;;5012147;28;20266;-38
2022/07/21 11:27:39;;;;;;;4.55;4.10;;;29.40;99.90;;;;;;5015180;28;20202;-37
2022/07/21 11:30:10;;;;;;;4.05;3.65;;;29.30;99.90;;;;;;4996149;28;20182;-42
2022/07/21 11:32:39;;;;;;;5.43;3.75;;;29.20;99.70;;;;;;5010010;28;20181;-40
2022/07/21 11:35:13;;;;;;;5.20;4.28;;;29.00;99.80;;;;;;5013772;28;20855;-40
2022/07/21 11:37:45;;;;;;;4.50;4.03;;;28.80;99.20;;;;;;5021069;28;20179;-37
2022/07/21 11:40:17;;;;;;;4.90;4.50;;;28.80;99.60;;;;;;5002307;28;20174;-38
2022/07/21 11:42:45;;;;;;;4.93;4.15;;;29.10;99.90;;;;;;5003152;28;20198;-41
2022/07/21 11:45:22;;;;;;;6.88;4.32;;;29.20;98.20;;;;;;5022350;28;20233;-40
2022/07/21 11:47:51;;;;;;;4.03;3.70;;;29.40;99.80;;;;;;5020482;28;20202;-37
2022/07/21 11:50:18;;;;;;;5.30;3.88;;;29.20;97.50;;;;;;5023099;28;20203;-37
2022/07/21 11:52:45;;;;;;;6.95;3.80;;;29.30;97.50;;;;;;5021217;28;20206;-37
2022/07/21 11:55:12;;;;;;;3.70;3.40;;;29.20;97.10;;;;;;5022034;28;20254;-41
2022/07/21 11:57:42;;;;;;;3.90;3.60;;;29.40;97.90;;;;;;5009310;28;20237;-37
2022/07/21 12:00:09;;;;;;;4.60;3.63;;;29.60;98.60;;;;;;5015261;28;20185;-36
2022/07/21 12:02:45;;;;;;;4.50;4.10;;;29.50;97.10;;;;;;5009992;28;20207;-38
2022/07/21 12:05:14;;;;;;;4.20;3.80;;;29.10;97.50;;;;;;5003471;28;20187;-36
2022/07/21 12:07:52;;;;;;;4.40;4.00;;;28.70;97.00;;;;;;5007508;28;20242;-35
2022/07/21 12:10:29;;;;;;;4.13;3.75;;;28.70;98.70;;;;;;5028132;28;20199;-36
2022/07/21 12:13:09;;;;;;;3.78;3.47;;;28.80;98.60;;;;;;5015487;28;20183;-39
2022/07/21 12:15:48;;;;;;;4.30;3.90;;;29.00;96.50;;;;;;5006549;28;20185;-36
2022/07/21 12:18:25;;;;;;;4.15;3.75;;;29.10;95.70;;;;;;5019410;28;20197;-36
2022/07/21 12:21:06;;;;;;;6.40;4.60;;;29.40;96.30;;;;;;5027948;28;20214;-37
2022/07/21 12:23:43;;;;;;;4.57;4.10;;;29.20;96.70;;;;;;5018604;28;20202;-35
2022/07/21 12:26:22;;;;;;;4.93;4.43;;;28.90;96.20;;;;;;5029048;28;20178;-36
2022/07/21 12:28:54;;;;;;;4.55;4.15;;;28.70;97.30;;;;;;5018811;28;20194;-40
2022/07/21 12:31:23;;;;;;;5.57;4.18;;;28.90;97.70;;;;;;5029693;28;20213;-35
2022/07/21 12:33:57;;;;;;;4.97;3.80;;;29.30;97.10;;;;;;5016585;28;20196;-41
2022/07/21 12:36:25;;;;;;;4.40;4.10;;;29.60;95.90;;;;;;5020250;28;20220;-37
2022/07/21 12:38:52;;;;;;;4.30;3.90;;;29.60;95.40;;;;;;5015707;28;20178;-35
2022/07/21 12:41:21;;;;;;;5.22;4.68;;;30.00;96.40;;;;;;5023573;28;20199;-35
2022/07/21 12:44:15;;;;;;;4.75;4.20;;;30.10;95.00;;;;;;4999748;28;20187;-36
2022/07/21 12:46:43;;;;;;;4.40;4.03;;;30.00;94.50;;;;;;5020999;28;20219;-35
2022/07/21 12:49:10;;;;;;;4.63;4.05;;;30.20;95.00;;;;;;5010080;28;20230;-35
2022/07/21 12:51:36;;;;;;;5.47;4.07;;;29.90;95.10;;;;;;5010319;28;20195;-35
2022/07/21 12:54:05;;;;;;;4.55;4.18;;;30.00;94.70;;;;;;5023938;28;20180;-37